sensor_id;sensor_type;location;lat;lon;timestamp;P1;durP1;ratioP1;P2;durP2;ratioP2
1414;SDS011;702;49.466;11.086;2023-07-24T00:01:58;8.43;;;5.00;;
1414;SDS011;702;49.466;11.086;2023-07-24T00:04:26;6.83;;;4.67;;
1414;SDS011;702;49.466;11.086;2023-07-24T00:06:53;5.10;;;4.53;;
1414;SDS011;702;49.466;11.086;2023-07-24T00:09:21;6.20;;;4.80;;
1414;SDS011;702;49.466;11.086;2023-07-24T00:11:50;6.17;;;4.27;;
1414;SDS011;702;49.466;11.086;2023-07-24T00:14:18;6.67;;;5.13;;
1414;SDS011;702;49.466;11.086;2023-07-24T00:16:48;6.83;;;4.40;;
1414;SDS011;702;49.466;11.086;2023-07-24T00:19:17;7.53;;;5.47;;
1414;SDS011;702;49.466;11.086;2023-07-24T00:21:45;7.37;;;4.80;;
1414;SDS011;702;49.466;11.086;2023-07-24T00:24:14;8.50;;;5.00;;
1414;SDS011;702;49.466;11.086;2023-07-24T00:26:42;5.50;;;4.70;;
1414;SDS011;702;49.466;11.086;2023-07-24T00:29:09;6.50;;;5.00;;
1414;SDS011;702;49.466;11.086;2023-07-24T00:31:36;10.00;;;5.10;;
1414;SDS011;702;49.466;11.086;2023-07-24T00:34:05;5.70;;;4.30;;
1414;SDS011;702;49.466;11.086;2023-07-24T00:36:32;7.80;;;4.50;;
1414;SDS011;702;49.466;11.086;2023-07-24T00:39:00;10.03;;;4.73;;
1414;SDS011;702;49.466;11.086;2023-07-24T00:41:28;7.27;;;4.90;;
1414;SDS011;702;49.466;11.086;2023-07-24T00:43:55;5.53;;;4.70;;
1414;SDS011;702;49.466;11.086;2023-07-24T00:46:36;7.03;;;4.87;;
1414;SDS011;702;49.466;11.086;2023-07-24T00:49:06;5.37;;;4.40;;
1414;SDS011;702;49.466;11.086;2023-07-24T00:51:34;6.90;;;4.30;;
1414;SDS011;702;49.466;11.086;2023-07-24T00:54:04;7.00;;;4.10;;
1414;SDS011;702;49.466;11.086;2023-07-24T00:56:33;7.53;;;4.70;;
1414;SDS011;702;49.466;11.086;2023-07-24T00:59:02;6.30;;;4.20;;
1414;SDS011;702;49.466;11.086;2023-07-24T01:01:29;6.63;;;5.07;;
1414;SDS011;702;49.466;11.086;2023-07-24T01:03:57;7.63;;;4.80;;
1414;SDS011;702;49.466;11.086;2023-07-24T01:06:35;7.73;;;4.87;;
1414;SDS011;702;49.466;11.086;2023-07-24T01:09:03;6.53;;;4.80;;
1414;SDS011;702;49.466;11.086;2023-07-24T01:11:32;8.17;;;5.00;;
1414;SDS011;702;49.466;11.086;2023-07-24T01:14:07;6.93;;;5.27;;
1414;SDS011;702;49.466;11.086;2023-07-24T01:16:41;6.50;;;4.57;;
1414;SDS011;702;49.466;11.086;2023-07-24T01:19:12;6.03;;;4.23;;
1414;SDS011;702;49.466;11.086;2023-07-24T01:21:52;8.27;;;5.57;;
1414;SDS011;702;49.466;11.086;2023-07-24T01:24:30;7.23;;;5.70;;
1414;SDS011;702;49.466;11.086;2023-07-24T01:27:08;8.73;;;4.50;;
1414;SDS011;702;49.466;11.086;2023-07-24T01:29:35;8.57;;;4.63;;
1414;SDS011;702;49.466;11.086;2023-07-24T01:32:04;8.33;;;5.00;;
1414;SDS011;702;49.466;11.086;2023-07-24T01:34:32;5.97;;;4.73;;
1414;SDS011;702;49.466;11.086;2023-07-24T01:36:59;7.03;;;5.80;;
1414;SDS011;702;49.466;11.086;2023-07-24T01:39:27;9.30;;;5.60;;
1414;SDS011;702;49.466;11.086;2023-07-24T01:41:55;6.13;;;5.13;;
1414;SDS011;702;49.466;11.086;2023-07-24T01:44:24;5.97;;;4.77;;
1414;SDS011;702;49.466;11.086;2023-07-24T01:46:52;9.60;;;5.47;;
1414;SDS011;702;49.466;11.086;2023-07-24T01:49:19;8.50;;;5.00;;
1414;SDS011;702;49.466;11.086;2023-07-24T01:51:46;7.53;;;5.60;;
1414;SDS011;702;49.466;11.086;2023-07-24T01:54:14;7.10;;;5.40;;
1414;SDS011;702;49.466;11.086;2023-07-24T01:56:41;6.67;;;5.87;;
1414;SDS011;702;49.466;11.086;2023-07-24T01:59:09;7.97;;;6.30;;
1414;SDS011;702;49.466;11.086;2023-07-24T02:01:38;9.70;;;5.43;;
1414;SDS011;702;49.466;11.086;2023-07-24T02:04:05;7.77;;;5.60;;
1414;SDS011;702;49.466;11.086;2023-07-24T02:06:32;10.07;;;6.03;;
1414;SDS011;702;49.466;11.086;2023-07-24T02:08:59;6.70;;;5.07;;
1414;SDS011;702;49.466;11.086;2023-07-24T02:11:27;7.00;;;5.23;;
1414;SDS011;702;49.466;11.086;2023-07-24T02:13:54;8.20;;;5.67;;
1414;SDS011;702;49.466;11.086;2023-07-24T02:16:21;9.10;;;5.70;;
1414;SDS011;702;49.466;11.086;2023-07-24T02:18:51;7.53;;;5.80;;
1414;SDS011;702;49.466;11.086;2023-07-24T02:21:18;8.80;;;6.20;;
1414;SDS011;702;49.466;11.086;2023-07-24T02:23:46;9.53;;;6.10;;
1414;SDS011;702;49.466;11.086;2023-07-24T02:26:13;7.60;;;5.80;;
1414;SDS011;702;49.466;11.086;2023-07-24T02:28:40;9.30;;;6.00;;
1414;SDS011;702;49.466;11.086;2023-07-24T02:31:08;6.83;;;4.90;;
1414;SDS011;702;49.466;11.086;2023-07-24T02:33:35;9.10;;;6.70;;
1414;SDS011;702;49.466;11.086;2023-07-24T02:36:04;7.83;;;5.80;;
1414;SDS011;702;49.466;11.086;2023-07-24T02:38:31;8.70;;;6.80;;
1414;SDS011;702;49.466;11.086;2023-07-24T02:40:58;8.13;;;6.20;;
1414;SDS011;702;49.466;11.086;2023-07-24T02:43:26;8.33;;;6.00;;
1414;SDS011;702;49.466;11.086;2023-07-24T02:45:53;9.73;;;6.47;;
1414;SDS011;702;49.466;11.086;2023-07-24T02:48:21;8.37;;;5.87;;
1414;SDS011;702;49.466;11.086;2023-07-24T02:50:48;8.30;;;6.17;;
1414;SDS011;702;49.466;11.086;2023-07-24T02:53:17;7.77;;;5.90;;
1414;SDS011;702;49.466;11.086;2023-07-24T02:55:44;6.03;;;5.43;;
1414;SDS011;702;49.466;11.086;2023-07-24T02:58:12;8.60;;;6.50;;
1414;SDS011;702;49.466;11.086;2023-07-24T03:00:40;8.47;;;6.23;;
1414;SDS011;702;49.466;11.086;2023-07-24T03:03:08;7.47;;;5.23;;
1414;SDS011;702;49.466;11.086;2023-07-24T03:05:35;9.63;;;6.73;;
1414;SDS011;702;49.466;11.086;2023-07-24T03:08:05;9.27;;;6.30;;
1414;SDS011;702;49.466;11.086;2023-07-24T03:10:34;7.90;;;6.60;;
1414;SDS011;702;49.466;11.086;2023-07-24T03:13:02;7.93;;;6.00;;
1414;SDS011;702;49.466;11.086;2023-07-24T03:15:29;7.53;;;6.40;;
1414;SDS011;702;49.466;11.086;2023-07-24T03:17:56;8.93;;;6.87;;
1414;SDS011;702;49.466;11.086;2023-07-24T03:20:23;9.63;;;7.07;;
1414;SDS011;702;49.466;11.086;2023-07-24T03:22:51;8.30;;;6.40;;
1414;SDS011;702;49.466;11.086;2023-07-24T03:25:18;9.60;;;6.30;;
1414;SDS011;702;49.466;11.086;2023-07-24T03:27:47;7.40;;;5.43;;
1414;SDS011;702;49.466;11.086;2023-07-24T03:30:14;11.60;;;6.27;;
1414;SDS011;702;49.466;11.086;2023-07-24T03:32:41;11.13;;;6.53;;
1414;SDS011;702;49.466;11.086;2023-07-24T03:35:09;7.17;;;5.50;;
1414;SDS011;702;49.466;11.086;2023-07-24T03:37:36;8.40;;;5.90;;
1414;SDS011;702;49.466;11.086;2023-07-24T03:40:04;9.40;;;6.47;;
1414;SDS011;702;49.466;11.086;2023-07-24T03:42:32;8.53;;;6.73;;
1414;SDS011;702;49.466;11.086;2023-07-24T03:45:04;9.67;;;7.10;;
1414;SDS011;702;49.466;11.086;2023-07-24T03:47:33;10.57;;;6.50;;
1414;SDS011;702;49.466;11.086;2023-07-24T03:50:00;7.83;;;6.00;;
1414;SDS011;702;49.466;11.086;2023-07-24T03:52:27;7.83;;;6.00;;
1414;SDS011;702;49.466;11.086;2023-07-24T03:54:55;10.27;;;7.40;;
1414;SDS011;702;49.466;11.086;2023-07-24T03:57:22;9.27;;;6.13;;
1414;SDS011;702;49.466;11.086;2023-07-24T03:59:49;8.70;;;6.00;;
1414;SDS011;702;49.466;11.086;2023-07-24T04:02:18;9.57;;;6.97;;
1414;SDS011;702;49.466;11.086;2023-07-24T04:04:45;8.40;;;7.40;;
1414;SDS011;702;49.466;11.086;2023-07-24T04:07:24;7.30;;;6.13;;
1414;SDS011;702;49.466;11.086;2023-07-24T04:09:51;9.40;;;7.23;;
1414;SDS011;702;49.466;11.086;2023-07-24T04:12:19;9.90;;;8.27;;
1414;SDS011;702;49.466;11.086;2023-07-24T04:14:48;8.50;;;7.20;;
1414;SDS011;702;49.466;11.086;2023-07-24T04:17:18;10.80;;;7.83;;
1414;SDS011;702;49.466;11.086;2023-07-24T04:19:45;8.90;;;6.73;;
1414;SDS011;702;49.466;11.086;2023-07-24T04:22:12;8.57;;;6.10;;
1414;SDS011;702;49.466;11.086;2023-07-24T04:24:39;8.70;;;6.70;;
1414;SDS011;702;49.466;11.086;2023-07-24T04:27:07;8.90;;;6.73;;
1414;SDS011;702;49.466;11.086;2023-07-24T04:29:34;9.43;;;7.80;;
1414;SDS011;702;49.466;11.086;2023-07-24T04:32:03;9.10;;;6.93;;
1414;SDS011;702;49.466;11.086;2023-07-24T04:34:32;10.90;;;7.67;;
1414;SDS011;702;49.466;11.086;2023-07-24T04:36:59;9.03;;;7.07;;
1414;SDS011;702;49.466;11.086;2023-07-24T04:39:26;11.27;;;7.07;;
1414;SDS011;702;49.466;11.086;2023-07-24T04:41:53;11.67;;;7.37;;
1414;SDS011;702;49.466;11.086;2023-07-24T04:44:21;9.63;;;6.00;;
1414;SDS011;702;49.466;11.086;2023-07-24T04:46:51;13.10;;;6.63;;
1414;SDS011;702;49.466;11.086;2023-07-24T04:49:20;7.80;;;5.73;;
1414;SDS011;702;49.466;11.086;2023-07-24T04:51:50;7.70;;;6.07;;
1414;SDS011;702;49.466;11.086;2023-07-24T04:54:17;9.10;;;6.77;;
1414;SDS011;702;49.466;11.086;2023-07-24T04:56:45;6.50;;;5.70;;
1414;SDS011;702;49.466;11.086;2023-07-24T04:59:12;8.50;;;5.40;;
1414;SDS011;702;49.466;11.086;2023-07-24T05:01:39;9.17;;;6.50;;
1414;SDS011;702;49.466;11.086;2023-07-24T05:04:07;7.57;;;5.73;;
1414;SDS011;702;49.466;11.086;2023-07-24T05:06:35;8.80;;;6.07;;
1414;SDS011;702;49.466;11.086;2023-07-24T05:09:05;7.97;;;5.90;;
1414;SDS011;702;49.466;11.086;2023-07-24T05:11:33;8.27;;;6.00;;
1414;SDS011;702;49.466;11.086;2023-07-24T05:14:01;8.23;;;6.27;;
1414;SDS011;702;49.466;11.086;2023-07-24T05:16:29;9.10;;;6.97;;
1414;SDS011;702;49.466;11.086;2023-07-24T05:18:59;9.70;;;6.70;;
1414;SDS011;702;49.466;11.086;2023-07-24T05:21:26;7.57;;;6.17;;
1414;SDS011;702;49.466;11.086;2023-07-24T05:23:53;8.67;;;6.00;;
1414;SDS011;702;49.466;11.086;2023-07-24T05:26:22;9.57;;;6.80;;
1414;SDS011;702;49.466;11.086;2023-07-24T05:28:49;10.13;;;7.10;;
1414;SDS011;702;49.466;11.086;2023-07-24T05:31:17;7.57;;;6.77;;
1414;SDS011;702;49.466;11.086;2023-07-24T05:33:45;8.23;;;6.33;;
1414;SDS011;702;49.466;11.086;2023-07-24T05:36:13;9.80;;;7.53;;
1414;SDS011;702;49.466;11.086;2023-07-24T05:38:41;7.97;;;6.40;;
1414;SDS011;702;49.466;11.086;2023-07-24T05:41:08;7.77;;;5.90;;
1414;SDS011;702;49.466;11.086;2023-07-24T05:43:37;8.03;;;5.77;;
1414;SDS011;702;49.466;11.086;2023-07-24T05:46:04;9.80;;;7.10;;
1414;SDS011;702;49.466;11.086;2023-07-24T05:48:31;9.37;;;6.93;;
1414;SDS011;702;49.466;11.086;2023-07-24T05:50:58;6.90;;;6.00;;
1414;SDS011;702;49.466;11.086;2023-07-24T05:53:26;8.53;;;6.27;;
1414;SDS011;702;49.466;11.086;2023-07-24T05:55:57;9.23;;;6.23;;
1414;SDS011;702;49.466;11.086;2023-07-24T05:58:26;7.43;;;6.13;;
1414;SDS011;702;49.466;11.086;2023-07-24T06:00:57;8.33;;;5.83;;
1414;SDS011;702;49.466;11.086;2023-07-24T06:03:24;8.93;;;6.53;;
1414;SDS011;702;49.466;11.086;2023-07-24T06:05:51;8.53;;;6.83;;
1414;SDS011;702;49.466;11.086;2023-07-24T06:08:19;9.70;;;6.40;;
1414;SDS011;702;49.466;11.086;2023-07-24T06:10:47;8.13;;;6.70;;
1414;SDS011;702;49.466;11.086;2023-07-24T06:13:15;8.07;;;6.80;;
1414;SDS011;702;49.466;11.086;2023-07-24T06:15:43;8.43;;;6.40;;
1414;SDS011;702;49.466;11.086;2023-07-24T06:18:12;7.20;;;5.63;;
1414;SDS011;702;49.466;11.086;2023-07-24T06:20:39;7.97;;;6.60;;
1414;SDS011;702;49.466;11.086;2023-07-24T06:23:07;8.83;;;6.03;;
1414;SDS011;702;49.466;11.086;2023-07-24T06:25:34;10.23;;;6.60;;
1414;SDS011;702;49.466;11.086;2023-07-24T06:28:02;8.33;;;6.20;;
1414;SDS011;702;49.466;11.086;2023-07-24T06:30:29;8.13;;;6.40;;
1414;SDS011;702;49.466;11.086;2023-07-24T06:33:00;7.70;;;6.10;;
1414;SDS011;702;49.466;11.086;2023-07-24T06:35:48;7.90;;;6.23;;
1414;SDS011;702;49.466;11.086;2023-07-24T06:38:15;8.37;;;6.20;;
1414;SDS011;702;49.466;11.086;2023-07-24T06:40:42;8.10;;;6.03;;
1414;SDS011;702;49.466;11.086;2023-07-24T06:43:10;8.73;;;6.80;;
1414;SDS011;702;49.466;11.086;2023-07-24T06:45:37;7.97;;;6.50;;
1414;SDS011;702;49.466;11.086;2023-07-24T06:48:05;8.90;;;6.53;;
1414;SDS011;702;49.466;11.086;2023-07-24T06:50:33;11.03;;;7.10;;
1414;SDS011;702;49.466;11.086;2023-07-24T06:53:01;9.37;;;6.80;;
1414;SDS011;702;49.466;11.086;2023-07-24T06:55:29;8.87;;;6.37;;
1414;SDS011;702;49.466;11.086;2023-07-24T06:57:56;8.63;;;6.40;;
1414;SDS011;702;49.466;11.086;2023-07-24T07:00:23;8.30;;;6.10;;
1414;SDS011;702;49.466;11.086;2023-07-24T07:02:51;7.40;;;6.43;;
1414;SDS011;702;49.466;11.086;2023-07-24T07:05:18;10.07;;;6.10;;
1414;SDS011;702;49.466;11.086;2023-07-24T07:07:45;8.70;;;6.40;;
1414;SDS011;702;49.466;11.086;2023-07-24T07:10:13;8.50;;;7.00;;
1414;SDS011;702;49.466;11.086;2023-07-24T07:12:41;9.03;;;5.90;;
1414;SDS011;702;49.466;11.086;2023-07-24T07:15:09;11.20;;;7.80;;
1414;SDS011;702;49.466;11.086;2023-07-24T07:17:36;7.30;;;6.00;;
1414;SDS011;702;49.466;11.086;2023-07-24T07:20:04;7.77;;;5.90;;
1414;SDS011;702;49.466;11.086;2023-07-24T07:22:33;7.67;;;5.60;;
1414;SDS011;702;49.466;11.086;2023-07-24T07:25:01;11.23;;;6.77;;
1414;SDS011;702;49.466;11.086;2023-07-24T07:27:29;8.50;;;6.57;;
1414;SDS011;702;49.466;11.086;2023-07-24T07:29:56;7.50;;;6.20;;
1414;SDS011;702;49.466;11.086;2023-07-24T07:32:24;7.33;;;5.90;;
1414;SDS011;702;49.466;11.086;2023-07-24T07:34:52;7.93;;;6.33;;
1414;SDS011;702;49.466;11.086;2023-07-24T07:37:21;7.10;;;5.90;;
1414;SDS011;702;49.466;11.086;2023-07-24T07:39:48;8.57;;;6.40;;
1414;SDS011;702;49.466;11.086;2023-07-24T07:42:15;8.70;;;6.37;;
1414;SDS011;702;49.466;11.086;2023-07-24T07:44:44;7.90;;;6.00;;
1414;SDS011;702;49.466;11.086;2023-07-24T07:47:11;6.80;;;6.03;;
1414;SDS011;702;49.466;11.086;2023-07-24T07:49:39;12.40;;;6.90;;
1414;SDS011;702;49.466;11.086;2023-07-24T07:52:06;6.53;;;5.50;;
1414;SDS011;702;49.466;11.086;2023-07-24T07:54:34;9.50;;;6.43;;
1414;SDS011;702;49.466;11.086;2023-07-24T07:57:01;7.17;;;5.90;;
1414;SDS011;702;49.466;11.086;2023-07-24T07:59:30;6.90;;;6.07;;
1414;SDS011;702;49.466;11.086;2023-07-24T08:02:00;12.60;;;6.40;;
1414;SDS011;702;49.466;11.086;2023-07-24T08:04:27;6.73;;;6.03;;
1414;SDS011;702;49.466;11.086;2023-07-24T08:06:55;7.50;;;5.60;;
1414;SDS011;702;49.466;11.086;2023-07-24T08:09:22;11.90;;;6.57;;
1414;SDS011;702;49.466;11.086;2023-07-24T08:11:49;8.20;;;6.27;;
1414;SDS011;702;49.466;11.086;2023-07-24T08:14:17;8.27;;;6.57;;
1414;SDS011;702;49.466;11.086;2023-07-24T08:16:44;8.77;;;6.77;;
1414;SDS011;702;49.466;11.086;2023-07-24T08:19:15;9.47;;;6.80;;
1414;SDS011;702;49.466;11.086;2023-07-24T08:21:43;9.90;;;6.70;;
1414;SDS011;702;49.466;11.086;2023-07-24T08:24:10;7.40;;;6.23;;
1414;SDS011;702;49.466;11.086;2023-07-24T08:26:37;8.40;;;5.90;;
1414;SDS011;702;49.466;11.086;2023-07-24T08:29:04;8.03;;;6.23;;
1414;SDS011;702;49.466;11.086;2023-07-24T08:31:33;8.50;;;6.60;;
1414;SDS011;702;49.466;11.086;2023-07-24T08:34:03;8.60;;;6.57;;
1414;SDS011;702;49.466;11.086;2023-07-24T08:36:32;10.00;;;6.57;;
1414;SDS011;702;49.466;11.086;2023-07-24T08:38:59;8.73;;;5.80;;
1414;SDS011;702;49.466;11.086;2023-07-24T08:41:26;8.50;;;6.33;;
1414;SDS011;702;49.466;11.086;2023-07-24T08:43:53;8.30;;;6.57;;
1414;SDS011;702;49.466;11.086;2023-07-24T08:46:21;7.20;;;6.07;;
1414;SDS011;702;49.466;11.086;2023-07-24T08:48:48;9.87;;;6.83;;
1414;SDS011;702;49.466;11.086;2023-07-24T08:51:16;8.77;;;7.07;;
1414;SDS011;702;49.466;11.086;2023-07-24T08:53:48;8.40;;;7.50;;
1414;SDS011;702;49.466;11.086;2023-07-24T08:56:16;8.83;;;7.20;;
1414;SDS011;702;49.466;11.086;2023-07-24T08:58:43;10.93;;;7.00;;
1414;SDS011;702;49.466;11.086;2023-07-24T09:01:10;8.80;;;7.20;;
1414;SDS011;702;49.466;11.086;2023-07-24T09:03:38;8.40;;;7.20;;
1414;SDS011;702;49.466;11.086;2023-07-24T09:06:05;10.67;;;7.60;;
1414;SDS011;702;49.466;11.086;2023-07-24T09:08:33;9.90;;;7.73;;
1414;SDS011;702;49.466;11.086;2023-07-24T09:11:04;8.67;;;7.50;;
1414;SDS011;702;49.466;11.086;2023-07-24T09:13:32;9.40;;;7.37;;
1414;SDS011;702;49.466;11.086;2023-07-24T09:16:01;8.60;;;6.73;;
1414;SDS011;702;49.466;11.086;2023-07-24T09:18:38;8.73;;;6.37;;
1414;SDS011;702;49.466;11.086;2023-07-24T09:21:05;8.03;;;6.80;;
1414;SDS011;702;49.466;11.086;2023-07-24T09:23:33;10.60;;;7.07;;
1414;SDS011;702;49.466;11.086;2023-07-24T09:26:06;7.93;;;7.00;;
1414;SDS011;702;49.466;11.086;2023-07-24T09:28:33;8.27;;;6.83;;
1414;SDS011;702;49.466;11.086;2023-07-24T09:31:02;9.50;;;7.70;;
1414;SDS011;702;49.466;11.086;2023-07-24T09:33:34;8.90;;;7.53;;
1414;SDS011;702;49.466;11.086;2023-07-24T09:36:03;8.53;;;6.73;;
1414;SDS011;702;49.466;11.086;2023-07-24T09:38:32;8.27;;;6.47;;
1414;SDS011;702;49.466;11.086;2023-07-24T09:41:00;9.30;;;6.87;;
1414;SDS011;702;49.466;11.086;2023-07-24T09:43:30;11.27;;;7.50;;
1414;SDS011;702;49.466;11.086;2023-07-24T09:45:58;8.43;;;7.53;;
1414;SDS011;702;49.466;11.086;2023-07-24T09:48:26;9.27;;;7.43;;
1414;SDS011;702;49.466;11.086;2023-07-24T09:50:54;8.93;;;6.67;;
1414;SDS011;702;49.466;11.086;2023-07-24T09:53:27;9.47;;;7.37;;
1414;SDS011;702;49.466;11.086;2023-07-24T09:56:00;11.80;;;7.30;;
1414;SDS011;702;49.466;11.086;2023-07-24T09:58:32;9.30;;;7.07;;
1414;SDS011;702;49.466;11.086;2023-07-24T10:01:01;8.40;;;7.37;;
1414;SDS011;702;49.466;11.086;2023-07-24T10:03:32;11.13;;;6.97;;
1414;SDS011;702;49.466;11.086;2023-07-24T10:06:01;10.40;;;7.10;;
1414;SDS011;702;49.466;11.086;2023-07-24T10:08:28;7.80;;;6.40;;
1414;SDS011;702;49.466;11.086;2023-07-24T10:10:57;11.67;;;8.70;;
1414;SDS011;702;49.466;11.086;2023-07-24T10:13:25;7.97;;;6.97;;
1414;SDS011;702;49.466;11.086;2023-07-24T10:15:55;8.50;;;6.50;;
1414;SDS011;702;49.466;11.086;2023-07-24T10:18:25;8.67;;;6.60;;
1414;SDS011;702;49.466;11.086;2023-07-24T10:20:59;7.77;;;6.97;;
1414;SDS011;702;49.466;11.086;2023-07-24T10:23:28;8.30;;;7.17;;
1414;SDS011;702;49.466;11.086;2023-07-24T10:26:02;7.93;;;6.30;;
1414;SDS011;702;49.466;11.086;2023-07-24T10:28:30;8.47;;;6.43;;
1414;SDS011;702;49.466;11.086;2023-07-24T10:31:01;8.10;;;6.13;;
1414;SDS011;702;49.466;11.086;2023-07-24T10:33:29;7.80;;;6.60;;
1414;SDS011;702;49.466;11.086;2023-07-24T10:36:03;8.90;;;6.80;;
1414;SDS011;702;49.466;11.086;2023-07-24T10:38:34;9.90;;;6.73;;
1414;SDS011;702;49.466;11.086;2023-07-24T10:41:04;8.10;;;6.53;;
1414;SDS011;702;49.466;11.086;2023-07-24T10:43:40;9.17;;;7.00;;
1414;SDS011;702;49.466;11.086;2023-07-24T10:46:10;7.60;;;6.80;;
1414;SDS011;702;49.466;11.086;2023-07-24T10:48:41;8.17;;;7.30;;
1414;SDS011;702;49.466;11.086;2023-07-24T10:51:09;8.07;;;6.47;;
1414;SDS011;702;49.466;11.086;2023-07-24T10:53:41;10.60;;;7.57;;
1414;SDS011;702;49.466;11.086;2023-07-24T10:56:11;9.10;;;6.70;;
1414;SDS011;702;49.466;11.086;2023-07-24T10:58:38;9.50;;;7.90;;
1414;SDS011;702;49.466;11.086;2023-07-24T11:01:05;7.73;;;7.00;;
1414;SDS011;702;49.466;11.086;2023-07-24T11:03:36;9.33;;;7.23;;
1414;SDS011;702;49.466;11.086;2023-07-24T11:06:10;10.90;;;8.00;;
1414;SDS011;702;49.466;11.086;2023-07-24T11:08:40;9.73;;;7.30;;
1414;SDS011;702;49.466;11.086;2023-07-24T11:11:07;10.07;;;7.00;;
1414;SDS011;702;49.466;11.086;2023-07-24T11:13:35;10.70;;;7.87;;
1414;SDS011;702;49.466;11.086;2023-07-24T11:16:04;8.83;;;6.47;;
1414;SDS011;702;49.466;11.086;2023-07-24T11:18:45;9.43;;;7.50;;
1414;SDS011;702;49.466;11.086;2023-07-24T11:21:13;9.87;;;6.90;;
1414;SDS011;702;49.466;11.086;2023-07-24T11:23:48;10.17;;;7.03;;
1414;SDS011;702;49.466;11.086;2023-07-24T11:26:18;11.70;;;7.53;;
1414;SDS011;702;49.466;11.086;2023-07-24T11:28:46;9.80;;;7.90;;
1414;SDS011;702;49.466;11.086;2023-07-24T11:31:14;8.40;;;7.50;;
1414;SDS011;702;49.466;11.086;2023-07-24T11:33:46;9.47;;;7.60;;
1414;SDS011;702;49.466;11.086;2023-07-24T11:36:15;8.70;;;6.97;;
1414;SDS011;702;49.466;11.086;2023-07-24T11:38:44;12.80;;;7.83;;
1414;SDS011;702;49.466;11.086;2023-07-24T11:41:11;8.80;;;7.10;;
1414;SDS011;702;49.466;11.086;2023-07-24T11:43:45;10.73;;;7.07;;
1414;SDS011;702;49.466;11.086;2023-07-24T11:46:21;8.67;;;7.30;;
1414;SDS011;702;49.466;11.086;2023-07-24T11:48:51;8.73;;;6.70;;
1414;SDS011;702;49.466;11.086;2023-07-24T11:51:22;11.00;;;7.27;;
1414;SDS011;702;49.466;11.086;2023-07-24T11:53:50;9.20;;;7.80;;
1414;SDS011;702;49.466;11.086;2023-07-24T11:56:19;10.70;;;7.60;;
1414;SDS011;702;49.466;11.086;2023-07-24T11:58:47;8.23;;;6.53;;
1414;SDS011;702;49.466;11.086;2023-07-24T12:01:14;10.27;;;7.27;;
1414;SDS011;702;49.466;11.086;2023-07-24T12:03:41;9.07;;;7.10;;
1414;SDS011;702;49.466;11.086;2023-07-24T12:06:15;11.17;;;7.17;;
1414;SDS011;702;49.466;11.086;2023-07-24T12:08:43;11.70;;;7.13;;
1414;SDS011;702;49.466;11.086;2023-07-24T12:11:17;6.30;;;5.70;;
1414;SDS011;702;49.466;11.086;2023-07-24T12:13:45;6.70;;;4.70;;
1414;SDS011;702;49.466;11.086;2023-07-24T12:16:12;6.80;;;4.83;;
1414;SDS011;702;49.466;11.086;2023-07-24T12:18:39;5.50;;;4.50;;
1414;SDS011;702;49.466;11.086;2023-07-24T12:21:06;5.33;;;4.50;;
1414;SDS011;702;49.466;11.086;2023-07-24T12:23:34;7.43;;;4.70;;
1414;SDS011;702;49.466;11.086;2023-07-24T12:26:02;4.70;;;4.00;;
1414;SDS011;702;49.466;11.086;2023-07-24T12:28:30;5.40;;;4.23;;
1414;SDS011;702;49.466;11.086;2023-07-24T12:30:58;5.50;;;4.57;;
1414;SDS011;702;49.466;11.086;2023-07-24T12:33:25;4.57;;;4.07;;
1414;SDS011;702;49.466;11.086;2023-07-24T12:35:52;5.00;;;4.10;;
1414;SDS011;702;49.466;11.086;2023-07-24T12:38:19;6.23;;;4.57;;
1414;SDS011;702;49.466;11.086;2023-07-24T12:40:48;6.90;;;4.10;;
1414;SDS011;702;49.466;11.086;2023-07-24T12:43:15;4.60;;;4.10;;
1414;SDS011;702;49.466;11.086;2023-07-24T12:45:42;5.13;;;4.13;;
1414;SDS011;702;49.466;11.086;2023-07-24T12:48:09;5.03;;;4.00;;
1414;SDS011;702;49.466;11.086;2023-07-24T12:50:36;5.37;;;4.60;;
1414;SDS011;702;49.466;11.086;2023-07-24T12:53:03;4.30;;;3.83;;
1414;SDS011;702;49.466;11.086;2023-07-24T12:55:31;5.10;;;4.60;;
1414;SDS011;702;49.466;11.086;2023-07-24T12:57:59;5.03;;;4.53;;
1414;SDS011;702;49.466;11.086;2023-07-24T13:00:28;6.13;;;4.83;;
1414;SDS011;702;49.466;11.086;2023-07-24T13:02:56;4.63;;;3.70;;
1414;SDS011;702;49.466;11.086;2023-07-24T13:05:23;6.60;;;5.07;;
1414;SDS011;702;49.466;11.086;2023-07-24T13:07:51;10.37;;;7.50;;
1414;SDS011;702;49.466;11.086;2023-07-24T13:10:20;6.73;;;6.03;;
1414;SDS011;702;49.466;11.086;2023-07-24T13:12:47;8.93;;;5.73;;
1414;SDS011;702;49.466;11.086;2023-07-24T13:15:16;5.90;;;5.20;;
1414;SDS011;702;49.466;11.086;2023-07-24T13:17:43;6.20;;;5.07;;
1414;SDS011;702;49.466;11.086;2023-07-24T13:20:11;6.37;;;5.50;;
1414;SDS011;702;49.466;11.086;2023-07-24T13:22:39;7.17;;;6.20;;
1414;SDS011;702;49.466;11.086;2023-07-24T13:25:08;8.00;;;5.83;;
1414;SDS011;702;49.466;11.086;2023-07-24T13:27:35;8.53;;;6.07;;
1414;SDS011;702;49.466;11.086;2023-07-24T13:30:03;6.80;;;5.60;;
1414;SDS011;702;49.466;11.086;2023-07-24T13:32:32;5.93;;;4.90;;
1414;SDS011;702;49.466;11.086;2023-07-24T13:34:59;6.30;;;5.40;;
1414;SDS011;702;49.466;11.086;2023-07-24T13:37:27;7.60;;;5.67;;
1414;SDS011;702;49.466;11.086;2023-07-24T13:39:54;5.73;;;4.70;;
1414;SDS011;702;49.466;11.086;2023-07-24T13:42:21;5.40;;;4.73;;
1414;SDS011;702;49.466;11.086;2023-07-24T13:44:48;5.83;;;4.90;;
1414;SDS011;702;49.466;11.086;2023-07-24T13:47:15;6.30;;;4.00;;
1414;SDS011;702;49.466;11.086;2023-07-24T13:49:44;6.77;;;4.97;;
1414;SDS011;702;49.466;11.086;2023-07-24T13:52:11;6.20;;;5.13;;
1414;SDS011;702;49.466;11.086;2023-07-24T13:54:38;5.80;;;4.77;;
1414;SDS011;702;49.466;11.086;2023-07-24T13:57:06;6.60;;;4.63;;
1414;SDS011;702;49.466;11.086;2023-07-24T13:59:33;5.00;;;4.53;;
1414;SDS011;702;49.466;11.086;2023-07-24T14:02:01;6.00;;;4.97;;
1414;SDS011;702;49.466;11.086;2023-07-24T14:04:28;5.63;;;4.63;;
1414;SDS011;702;49.466;11.086;2023-07-24T14:06:56;6.40;;;4.80;;
1414;SDS011;702;49.466;11.086;2023-07-24T14:09:24;4.97;;;4.33;;
1414;SDS011;702;49.466;11.086;2023-07-24T14:11:51;5.00;;;4.43;;
1414;SDS011;702;49.466;11.086;2023-07-24T14:14:18;6.33;;;4.27;;
1414;SDS011;702;49.466;11.086;2023-07-24T14:16:45;5.37;;;4.33;;
1414;SDS011;702;49.466;11.086;2023-07-24T14:19:12;6.40;;;4.97;;
1414;SDS011;702;49.466;11.086;2023-07-24T14:21:40;5.07;;;4.33;;
1414;SDS011;702;49.466;11.086;2023-07-24T14:24:09;4.60;;;3.80;;
1414;SDS011;702;49.466;11.086;2023-07-24T14:26:36;4.70;;;4.30;;
1414;SDS011;702;49.466;11.086;2023-07-24T14:29:04;5.20;;;4.33;;
1414;SDS011;702;49.466;11.086;2023-07-24T14:31:31;7.87;;;6.27;;
1414;SDS011;702;49.466;11.086;2023-07-24T14:33:59;5.20;;;4.43;;
1414;SDS011;702;49.466;11.086;2023-07-24T14:36:26;4.80;;;4.13;;
1414;SDS011;702;49.466;11.086;2023-07-24T14:38:58;5.00;;;4.50;;
1414;SDS011;702;49.466;11.086;2023-07-24T14:41:27;4.87;;;4.37;;
1414;SDS011;702;49.466;11.086;2023-07-24T14:43:55;5.13;;;4.23;;
1414;SDS011;702;49.466;11.086;2023-07-24T14:46:24;5.60;;;4.40;;
1414;SDS011;702;49.466;11.086;2023-07-24T14:48:52;5.03;;;4.30;;
1414;SDS011;702;49.466;11.086;2023-07-24T14:51:19;6.30;;;4.70;;
1414;SDS011;702;49.466;11.086;2023-07-24T14:53:46;5.53;;;4.37;;
1414;SDS011;702;49.466;11.086;2023-07-24T14:56:14;5.33;;;4.40;;
1414;SDS011;702;49.466;11.086;2023-07-24T14:58:42;5.93;;;4.10;;
1414;SDS011;702;49.466;11.086;2023-07-24T15:01:11;5.07;;;3.90;;
1414;SDS011;702;49.466;11.086;2023-07-24T15:03:39;4.70;;;3.57;;
1414;SDS011;702;49.466;11.086;2023-07-24T15:06:06;6.60;;;4.03;;
1414;SDS011;702;49.466;11.086;2023-07-24T15:08:34;7.77;;;4.87;;
1414;SDS011;702;49.466;11.086;2023-07-24T15:11:01;4.83;;;4.37;;
1414;SDS011;702;49.466;11.086;2023-07-24T15:13:29;4.70;;;4.27;;
1414;SDS011;702;49.466;11.086;2023-07-24T15:15:57;6.10;;;4.20;;
1414;SDS011;702;49.466;11.086;2023-07-24T15:18:24;5.20;;;3.57;;
1414;SDS011;702;49.466;11.086;2023-07-24T15:20:52;5.40;;;3.53;;
1414;SDS011;702;49.466;11.086;2023-07-24T15:23:19;4.30;;;3.30;;